sensor_id;sensor_type;location;lat;lon;timestamp;P1;durP1;ratioP1;P2;durP2;ratioP2
32333;SDS011;18810;53.040;8.850;2022-10-16T00:00:19;4.28;;;2.85;;
32333;SDS011;18810;53.040;8.850;2022-10-16T00:02:45;4.07;;;2.50;;
32333;SDS011;18810;53.040;8.850;2022-10-16T00:05:11;5.53;;;2.90;;
32333;SDS011;18810;53.040;8.850;2022-10-16T00:07:36;3.60;;;2.50;;
32333;SDS011;18810;53.040;8.850;2022-10-16T00:10:02;4.43;;;2.88;;
32333;SDS011;18810;53.040;8.850;2022-10-16T00:12:28;5.22;;;2.55;;
32333;SDS011;18810;53.040;8.850;2022-10-16T00:14:54;4.88;;;2.53;;
32333;SDS011;18810;53.040;8.850;2022-10-16T00:17:20;3.83;;;2.63;;
32333;SDS011;18810;53.040;8.850;2022-10-16T00:19:46;5.40;;;3.03;;
32333;SDS011;18810;53.040;8.850;2022-10-16T00:22:12;3.90;;;2.55;;
32333;SDS011;18810;53.040;8.850;2022-10-16T00:24:38;4.35;;;2.72;;
32333;SDS011;18810;53.040;8.850;2022-10-16T00:27:04;5.50;;;2.70;;
32333;SDS011;18810;53.040;8.850;2022-10-16T00:29:30;4.75;;;2.60;;
32333;SDS011;18810;53.040;8.850;2022-10-16T00:31:56;5.88;;;2.63;;
32333;SDS011;18810;53.040;8.850;2022-10-16T00:34:22;5.22;;;2.42;;
32333;SDS011;18810;53.040;8.850;2022-10-16T00:36:48;5.30;;;2.50;;
32333;SDS011;18810;53.040;8.850;2022-10-16T00:39:13;3.95;;;2.38;;
32333;SDS011;18810;53.040;8.850;2022-10-16T00:41:39;4.95;;;2.53;;
32333;SDS011;18810;53.040;8.850;2022-10-16T00:47:29;3.45;;;2.55;;
32333;SDS011;18810;53.040;8.850;2022-10-16T00:50:00;7.10;;;3.00;;
32333;SDS011;18810;53.040;8.850;2022-10-16T00:52:31;5.18;;;2.50;;
32333;SDS011;18810;53.040;8.850;2022-10-16T00:54:57;4.60;;;2.45;;
32333;SDS011;18810;53.040;8.850;2022-10-16T00:57:24;4.32;;;2.50;;
32333;SDS011;18810;53.040;8.850;2022-10-16T00:59:50;3.30;;;2.85;;
32333;SDS011;18810;53.040;8.850;2022-10-16T01:02:17;4.85;;;2.70;;
32333;SDS011;18810;53.040;8.850;2022-10-16T01:04:47;2.95;;;2.65;;
32333;SDS011;18810;53.040;8.850;2022-10-16T01:10:12;5.97;;;2.72;;
32333;SDS011;18810;53.040;8.850;2022-10-16T01:15:19;6.28;;;3.13;;
32333;SDS011;18810;53.040;8.850;2022-10-16T01:20:27;7.32;;;3.40;;
32333;SDS011;18810;53.040;8.850;2022-10-16T01:23:07;6.30;;;3.28;;
32333;SDS011;18810;53.040;8.850;2022-10-16T01:28:42;4.85;;;3.30;;
32333;SDS011;18810;53.040;8.850;2022-10-16T01:31:09;6.03;;;3.20;;
32333;SDS011;18810;53.040;8.850;2022-10-16T01:33:43;5.65;;;3.28;;
32333;SDS011;18810;53.040;8.850;2022-10-16T01:36:13;5.38;;;3.10;;
32333;SDS011;18810;53.040;8.850;2022-10-16T01:38:49;4.65;;;3.15;;
32333;SDS011;18810;53.040;8.850;2022-10-16T01:42:19;6.88;;;3.13;;
32333;SDS011;18810;53.040;8.850;2022-10-16T01:44:18;7.07;;;3.53;;
32333;SDS011;18810;53.040;8.850;2022-10-16T01:46:48;6.28;;;3.47;;
32333;SDS011;18810;53.040;8.850;2022-10-16T01:49:16;6.63;;;3.42;;
32333;SDS011;18810;53.040;8.850;2022-10-16T01:51:43;5.88;;;3.15;;
32333;SDS011;18810;53.040;8.850;2022-10-16T01:54:12;5.30;;;3.35;;
32333;SDS011;18810;53.040;8.850;2022-10-16T01:56:40;8.48;;;3.30;;
32333;SDS011;18810;53.040;8.850;2022-10-16T01:59:09;5.75;;;3.65;;
32333;SDS011;18810;53.040;8.850;2022-10-16T02:01:39;5.18;;;2.88;;
32333;SDS011;18810;53.040;8.850;2022-10-16T02:04:13;6.22;;;3.40;;
32333;SDS011;18810;53.040;8.850;2022-10-16T02:06:43;5.82;;;3.25;;
32333;SDS011;18810;53.040;8.850;2022-10-16T02:09:09;7.65;;;3.58;;
32333;SDS011;18810;53.040;8.850;2022-10-16T02:11:36;5.15;;;3.60;;
32333;SDS011;18810;53.040;8.850;2022-10-16T02:14:03;5.93;;;4.03;;
32333;SDS011;18810;53.040;8.850;2022-10-16T02:16:38;9.52;;;3.95;;
32333;SDS011;18810;53.040;8.850;2022-10-16T02:19:06;5.82;;;3.80;;
32333;SDS011;18810;53.040;8.850;2022-10-16T02:24:24;8.02;;;4.20;;
32333;SDS011;18810;53.040;8.850;2022-10-16T02:29:40;7.30;;;3.72;;
32333;SDS011;18810;53.040;8.850;2022-10-16T02:32:10;5.53;;;3.60;;
32333;SDS011;18810;53.040;8.850;2022-10-16T02:34:39;12.10;;;4.15;;
32333;SDS011;18810;53.040;8.850;2022-10-16T02:37:06;6.78;;;4.00;;
32333;SDS011;18810;53.040;8.850;2022-10-16T02:39:32;7.75;;;4.35;;
32333;SDS011;18810;53.040;8.850;2022-10-16T02:45:22;9.20;;;4.97;;
32333;SDS011;18810;53.040;8.850;2022-10-16T02:47:48;7.72;;;4.38;;
32333;SDS011;18810;53.040;8.850;2022-10-16T02:50:15;9.65;;;4.50;;
32333;SDS011;18810;53.040;8.850;2022-10-16T02:52:41;6.28;;;4.05;;
32333;SDS011;18810;53.040;8.850;2022-10-16T02:55:07;7.95;;;4.47;;
32333;SDS011;18810;53.040;8.850;2022-10-16T02:57:33;6.93;;;3.95;;
32333;SDS011;18810;53.040;8.850;2022-10-16T03:00:01;6.38;;;4.00;;
32333;SDS011;18810;53.040;8.850;2022-10-16T03:02:27;9.18;;;4.88;;
32333;SDS011;18810;53.040;8.850;2022-10-16T03:04:53;5.43;;;4.32;;
32333;SDS011;18810;53.040;8.850;2022-10-16T03:07:19;7.85;;;4.15;;
32333;SDS011;18810;53.040;8.850;2022-10-16T03:09:45;6.60;;;4.25;;
32333;SDS011;18810;53.040;8.850;2022-10-16T03:12:11;9.32;;;4.97;;
32333;SDS011;18810;53.040;8.850;2022-10-16T03:14:37;10.02;;;4.60;;
32333;SDS011;18810;53.040;8.850;2022-10-16T03:17:04;9.57;;;5.43;;
32333;SDS011;18810;53.040;8.850;2022-10-16T03:19:30;8.60;;;4.88;;
32333;SDS011;18810;53.040;8.850;2022-10-16T03:21:56;10.07;;;5.20;;
32333;SDS011;18810;53.040;8.850;2022-10-16T03:24:22;11.57;;;5.10;;
32333;SDS011;18810;53.040;8.850;2022-10-16T03:26:48;7.95;;;5.38;;
32333;SDS011;18810;53.040;8.850;2022-10-16T03:29:14;12.73;;;5.57;;
32333;SDS011;18810;53.040;8.850;2022-10-16T03:31:40;9.65;;;5.57;;
32333;SDS011;18810;53.040;8.850;2022-10-16T03:34:06;11.18;;;5.60;;
32333;SDS011;18810;53.040;8.850;2022-10-16T03:36:32;11.95;;;6.30;;
32333;SDS011;18810;53.040;8.850;2022-10-16T03:38:58;9.48;;;6.53;;
32333;SDS011;18810;53.040;8.850;2022-10-16T03:41:24;12.20;;;7.20;;
32333;SDS011;18810;53.040;8.850;2022-10-16T03:47:11;11.00;;;7.32;;
32333;SDS011;18810;53.040;8.850;2022-10-16T03:49:37;13.25;;;8.07;;
32333;SDS011;18810;53.040;8.850;2022-10-16T03:52:03;14.45;;;8.63;;
32333;SDS011;18810;53.040;8.850;2022-10-16T03:54:29;16.23;;;9.57;;
32333;SDS011;18810;53.040;8.850;2022-10-16T03:56:54;15.23;;;10.13;;
32333;SDS011;18810;53.040;8.850;2022-10-16T03:59:20;16.27;;;9.80;;
32333;SDS011;18810;53.040;8.850;2022-10-16T04:01:46;16.15;;;9.30;;
32333;SDS011;18810;53.040;8.850;2022-10-16T04:04:12;17.73;;;9.93;;
32333;SDS011;18810;53.040;8.850;2022-10-16T04:06:37;17.15;;;10.95;;
32333;SDS011;18810;53.040;8.850;2022-10-16T04:09:03;20.17;;;10.85;;
32333;SDS011;18810;53.040;8.850;2022-10-16T04:11:30;25.10;;;11.93;;
32333;SDS011;18810;53.040;8.850;2022-10-16T04:13:55;16.50;;;10.50;;
32333;SDS011;18810;53.040;8.850;2022-10-16T04:16:21;18.58;;;11.55;;
32333;SDS011;18810;53.040;8.850;2022-10-16T04:18:47;19.67;;;11.77;;
32333;SDS011;18810;53.040;8.850;2022-10-16T04:21:13;23.05;;;12.30;;
32333;SDS011;18810;53.040;8.850;2022-10-16T04:23:39;18.67;;;11.95;;
32333;SDS011;18810;53.040;8.850;2022-10-16T04:26:05;19.65;;;12.07;;
32333;SDS011;18810;53.040;8.850;2022-10-16T04:28:30;25.48;;;12.38;;
32333;SDS011;18810;53.040;8.850;2022-10-16T04:30:56;23.73;;;14.23;;
32333;SDS011;18810;53.040;8.850;2022-10-16T04:33:22;24.55;;;13.77;;
32333;SDS011;18810;53.040;8.850;2022-10-16T04:35:48;25.13;;;13.88;;
32333;SDS011;18810;53.040;8.850;2022-10-16T04:38:14;21.52;;;13.70;;
32333;SDS011;18810;53.040;8.850;2022-10-16T04:40:41;26.27;;;13.40;;
32333;SDS011;18810;53.040;8.850;2022-10-16T04:43:17;27.33;;;14.25;;
32333;SDS011;18810;53.040;8.850;2022-10-16T04:45:43;24.48;;;13.85;;
32333;SDS011;18810;53.040;8.850;2022-10-16T04:48:09;22.08;;;13.30;;
32333;SDS011;18810;53.040;8.850;2022-10-16T04:50:35;23.42;;;13.95;;
32333;SDS011;18810;53.040;8.850;2022-10-16T04:53:01;23.50;;;13.80;;
32333;SDS011;18810;53.040;8.850;2022-10-16T04:55:27;21.83;;;13.95;;
32333;SDS011;18810;53.040;8.850;2022-10-16T04:57:53;24.15;;;13.23;;
32333;SDS011;18810;53.040;8.850;2022-10-16T05:00:19;22.20;;;13.50;;
32333;SDS011;18810;53.040;8.850;2022-10-16T05:02:45;24.60;;;14.40;;
32333;SDS011;18810;53.040;8.850;2022-10-16T05:05:10;21.67;;;14.30;;
32333;SDS011;18810;53.040;8.850;2022-10-16T05:07:36;24.67;;;15.05;;
32333;SDS011;18810;53.040;8.850;2022-10-16T05:10:02;28.25;;;15.82;;
32333;SDS011;18810;53.040;8.850;2022-10-16T05:12:28;26.92;;;15.68;;
32333;SDS011;18810;53.040;8.850;2022-10-16T05:14:54;28.02;;;15.80;;
32333;SDS011;18810;53.040;8.850;2022-10-16T05:17:23;25.27;;;15.70;;
32333;SDS011;18810;53.040;8.850;2022-10-16T05:19:50;23.15;;;15.50;;
32333;SDS011;18810;53.040;8.850;2022-10-16T05:22:16;31.98;;;16.58;;
32333;SDS011;18810;53.040;8.850;2022-10-16T05:24:42;27.10;;;16.75;;
32333;SDS011;18810;53.040;8.850;2022-10-16T05:27:07;30.58;;;16.35;;
32333;SDS011;18810;53.040;8.850;2022-10-16T05:29:33;27.50;;;17.23;;
32333;SDS011;18810;53.040;8.850;2022-10-16T05:32:00;25.70;;;16.58;;
32333;SDS011;18810;53.040;8.850;2022-10-16T05:34:26;28.73;;;16.55;;
32333;SDS011;18810;53.040;8.850;2022-10-16T05:36:51;26.17;;;16.20;;
32333;SDS011;18810;53.040;8.850;2022-10-16T05:39:17;24.15;;;15.00;;
32333;SDS011;18810;53.040;8.850;2022-10-16T05:41:43;28.05;;;17.05;;
32333;SDS011;18810;53.040;8.850;2022-10-16T05:44:09;28.15;;;17.20;;
32333;SDS011;18810;53.040;8.850;2022-10-16T05:46:35;23.73;;;15.98;;
32333;SDS011;18810;53.040;8.850;2022-10-16T05:49:01;27.08;;;16.67;;
32333;SDS011;18810;53.040;8.850;2022-10-16T05:51:27;24.88;;;16.08;;
32333;SDS011;18810;53.040;8.850;2022-10-16T05:53:52;26.80;;;16.50;;
32333;SDS011;18810;53.040;8.850;2022-10-16T05:56:18;24.55;;;16.23;;
32333;SDS011;18810;53.040;8.850;2022-10-16T05:58:44;28.08;;;16.10;;
32333;SDS011;18810;53.040;8.850;2022-10-16T06:01:11;27.65;;;14.93;;
32333;SDS011;18810;53.040;8.850;2022-10-16T06:03:39;24.98;;;15.57;;
32333;SDS011;18810;53.040;8.850;2022-10-16T06:06:12;24.73;;;15.15;;
32333;SDS011;18810;53.040;8.850;2022-10-16T06:08:40;23.95;;;15.02;;
32333;SDS011;18810;53.040;8.850;2022-10-16T06:11:07;21.58;;;15.45;;
32333;SDS011;18810;53.040;8.850;2022-10-16T06:13:35;23.75;;;14.60;;
32333;SDS011;18810;53.040;8.850;2022-10-16T06:16:01;24.65;;;15.20;;
32333;SDS011;18810;53.040;8.850;2022-10-16T06:18:28;19.92;;;12.98;;
32333;SDS011;18810;53.040;8.850;2022-10-16T06:20:55;23.63;;;13.93;;
32333;SDS011;18810;53.040;8.850;2022-10-16T06:23:21;22.02;;;13.75;;
32333;SDS011;18810;53.040;8.850;2022-10-16T06:25:47;20.70;;;13.13;;
32333;SDS011;18810;53.040;8.850;2022-10-16T06:28:13;21.58;;;12.77;;
32333;SDS011;18810;53.040;8.850;2022-10-16T06:30:40;18.13;;;12.88;;
32333;SDS011;18810;53.040;8.850;2022-10-16T06:33:07;20.33;;;12.32;;
32333;SDS011;18810;53.040;8.850;2022-10-16T06:35:33;20.85;;;13.60;;
32333;SDS011;18810;53.040;8.850;2022-10-16T06:38:00;21.23;;;12.65;;
32333;SDS011;18810;53.040;8.850;2022-10-16T06:40:25;19.30;;;12.30;;
32333;SDS011;18810;53.040;8.850;2022-10-16T06:42:54;21.17;;;12.88;;
32333;SDS011;18810;53.040;8.850;2022-10-16T06:45:20;20.25;;;12.77;;
32333;SDS011;18810;53.040;8.850;2022-10-16T06:47:47;21.27;;;13.50;;
32333;SDS011;18810;53.040;8.850;2022-10-16T06:50:13;15.85;;;11.93;;
32333;SDS011;18810;53.040;8.850;2022-10-16T06:52:39;18.35;;;12.30;;
32333;SDS011;18810;53.040;8.850;2022-10-16T06:55:05;21.77;;;12.05;;
32333;SDS011;18810;53.040;8.850;2022-10-16T06:57:31;18.83;;;11.65;;
32333;SDS011;18810;53.040;8.850;2022-10-16T06:59:57;16.42;;;11.45;;
32333;SDS011;18810;53.040;8.850;2022-10-16T07:02:23;13.95;;;10.40;;
32333;SDS011;18810;53.040;8.850;2022-10-16T07:04:49;17.63;;;10.20;;
32333;SDS011;18810;53.040;8.850;2022-10-16T07:07:15;15.80;;;10.73;;
32333;SDS011;18810;53.040;8.850;2022-10-16T07:09:41;14.15;;;9.82;;
32333;SDS011;18810;53.040;8.850;2022-10-16T07:12:07;16.15;;;9.93;;
32333;SDS011;18810;53.040;8.850;2022-10-16T07:14:33;12.80;;;9.40;;
32333;SDS011;18810;53.040;8.850;2022-10-16T07:16:59;27.40;;;17.60;;
32333;SDS011;18810;53.040;8.850;2022-10-16T07:19:25;15.07;;;9.82;;
32333;SDS011;18810;53.040;8.850;2022-10-16T07:21:50;18.25;;;9.88;;
32333;SDS011;18810;53.040;8.850;2022-10-16T07:24:16;21.27;;;15.32;;
32333;SDS011;18810;53.040;8.850;2022-10-16T07:26:43;15.05;;;9.55;;
32333;SDS011;18810;53.040;8.850;2022-10-16T07:29:14;15.93;;;11.00;;
32333;SDS011;18810;53.040;8.850;2022-10-16T07:31:42;20.52;;;15.82;;
32333;SDS011;18810;53.040;8.850;2022-10-16T07:34:09;13.07;;;8.70;;
32333;SDS011;18810;53.040;8.850;2022-10-16T07:36:36;10.23;;;7.65;;
32333;SDS011;18810;53.040;8.850;2022-10-16T07:39:02;12.52;;;8.15;;
32333;SDS011;18810;53.040;8.850;2022-10-16T07:41:28;9.57;;;7.30;;
32333;SDS011;18810;53.040;8.850;2022-10-16T07:43:55;10.15;;;7.07;;
32333;SDS011;18810;53.040;8.850;2022-10-16T07:46:24;14.18;;;7.28;;
32333;SDS011;18810;53.040;8.850;2022-10-16T07:48:50;10.85;;;7.65;;
32333;SDS011;18810;53.040;8.850;2022-10-16T07:51:20;10.68;;;7.35;;
32333;SDS011;18810;53.040;8.850;2022-10-16T07:53:47;8.68;;;6.72;;
32333;SDS011;18810;53.040;8.850;2022-10-16T07:56:13;10.02;;;6.72;;
32333;SDS011;18810;53.040;8.850;2022-10-16T07:58:39;12.80;;;6.50;;
32333;SDS011;18810;53.040;8.850;2022-10-16T08:01:10;10.50;;;6.13;;
32333;SDS011;18810;53.040;8.850;2022-10-16T08:03:37;8.05;;;6.03;;
32333;SDS011;18810;53.040;8.850;2022-10-16T08:06:03;12.50;;;5.68;;
32333;SDS011;18810;53.040;8.850;2022-10-16T08:08:30;10.90;;;5.78;;
32333;SDS011;18810;53.040;8.850;2022-10-16T08:10:56;7.68;;;5.50;;
32333;SDS011;18810;53.040;8.850;2022-10-16T08:13:22;8.18;;;4.97;;
32333;SDS011;18810;53.040;8.850;2022-10-16T08:15:48;7.78;;;5.65;;
32333;SDS011;18810;53.040;8.850;2022-10-16T08:18:14;7.78;;;5.03;;
32333;SDS011;18810;53.040;8.850;2022-10-16T08:20:41;6.13;;;4.72;;
32333;SDS011;18810;53.040;8.850;2022-10-16T08:23:09;6.95;;;4.43;;
32333;SDS011;18810;53.040;8.850;2022-10-16T08:25:35;5.72;;;4.28;;
32333;SDS011;18810;53.040;8.850;2022-10-16T08:28:05;6.03;;;4.68;;
32333;SDS011;18810;53.040;8.850;2022-10-16T08:30:32;7.78;;;4.68;;
32333;SDS011;18810;53.040;8.850;2022-10-16T08:32:58;9.98;;;4.53;;
32333;SDS011;18810;53.040;8.850;2022-10-16T08:35:24;6.75;;;4.60;;
32333;SDS011;18810;53.040;8.850;2022-10-16T08:37:50;9.13;;;4.78;;
32333;SDS011;18810;53.040;8.850;2022-10-16T08:40:18;6.05;;;4.25;;
32333;SDS011;18810;53.040;8.850;2022-10-16T08:48:51;6.63;;;4.10;;
32333;SDS011;18810;53.040;8.850;2022-10-16T08:51:20;7.53;;;3.97;;
32333;SDS011;18810;53.040;8.850;2022-10-16T08:53:53;4.65;;;3.22;;
32333;SDS011;18810;53.040;8.850;2022-10-16T08:56:23;5.85;;;4.10;;
32333;SDS011;18810;53.040;8.850;2022-10-16T08:58:51;6.78;;;3.97;;
32333;SDS011;18810;53.040;8.850;2022-10-16T09:01:18;5.72;;;3.80;;
32333;SDS011;18810;53.040;8.850;2022-10-16T09:06:43;11.15;;;3.60;;
32333;SDS011;18810;53.040;8.850;2022-10-16T09:14:59;4.57;;;2.85;;
32333;SDS011;18810;53.040;8.850;2022-10-16T09:20:24;7.03;;;2.83;;
32333;SDS011;18810;53.040;8.850;2022-10-16T09:23:00;6.95;;;2.75;;
32333;SDS011;18810;53.040;8.850;2022-10-16T09:25:37;6.05;;;2.67;;
32333;SDS011;18810;53.040;8.850;2022-10-16T09:28:07;5.05;;;2.70;;
32333;SDS011;18810;53.040;8.850;2022-10-16T09:30:34;5.85;;;2.72;;
32333;SDS011;18810;53.040;8.850;2022-10-16T09:33:00;5.25;;;2.40;;
32333;SDS011;18810;53.040;8.850;2022-10-16T09:35:32;4.32;;;1.90;;
32333;SDS011;18810;53.040;8.850;2022-10-16T09:37:58;4.95;;;2.17;;
32333;SDS011;18810;53.040;8.850;2022-10-16T09:40:25;3.90;;;2.00;;
32333;SDS011;18810;53.040;8.850;2022-10-16T09:42:56;4.80;;;1.65;;
32333;SDS011;18810;53.040;8.850;2022-10-16T09:45:27;4.50;;;2.03;;
32333;SDS011;18810;53.040;8.850;2022-10-16T09:47:53;5.70;;;1.85;;
32333;SDS011;18810;53.040;8.850;2022-10-16T09:50:25;3.85;;;1.70;;
32333;SDS011;18810;53.040;8.850;2022-10-16T09:53:05;6.25;;;2.30;;
32333;SDS011;18810;53.040;8.850;2022-10-16T09:55:48;5.28;;;1.80;;
32333;SDS011;18810;53.040;8.850;2022-10-16T09:58:15;4.10;;;2.03;;
32333;SDS011;18810;53.040;8.850;2022-10-16T10:00:41;5.32;;;2.13;;
32333;SDS011;18810;53.040;8.850;2022-10-16T10:03:15;6.90;;;2.40;;
32333;SDS011;18810;53.040;8.850;2022-10-16T10:06:07;3.28;;;1.95;;
32333;SDS011;18810;53.040;8.850;2022-10-16T10:08:56;4.00;;;2.10;;
32333;SDS011;18810;53.040;8.850;2022-10-16T10:14:06;5.03;;;2.13;;
32333;SDS011;18810;53.040;8.850;2022-10-16T10:16:40;5.25;;;1.77;;
32333;SDS011;18810;53.040;8.850;2022-10-16T10:19:09;3.78;;;1.70;;
32333;SDS011;18810;53.040;8.850;2022-10-16T10:21:46;5.97;;;1.97;;
32333;SDS011;18810;53.040;8.850;2022-10-16T10:24:13;3.95;;;1.90;;
32333;SDS011;18810;53.040;8.850;2022-10-16T10:27:03;3.78;;;1.77;;
32333;SDS011;18810;53.040;8.850;2022-10-16T10:32:24;7.90;;;1.80;;
32333;SDS011;18810;53.040;8.850;2022-10-16T10:35:36;4.75;;;1.77;;
32333;SDS011;18810;53.040;8.850;2022-10-16T10:49:05;5.82;;;1.67;;
32333;SDS011;18810;53.040;8.850;2022-10-16T10:51:48;4.03;;;2.00;;
32333;SDS011;18810;53.040;8.850;2022-10-16T10:54:36;4.47;;;1.60;;
32333;SDS011;18810;53.040;8.850;2022-10-16T10:57:09;5.78;;;1.60;;
32333;SDS011;18810;53.040;8.850;2022-10-16T11:05:42;5.15;;;1.65;;
32333;SDS011;18810;53.040;8.850;2022-10-16T11:08:14;4.38;;;1.63;;
32333;SDS011;18810;53.040;8.850;2022-10-16T11:10:57;3.20;;;1.60;;
32333;SDS011;18810;53.040;8.850;2022-10-16T11:16:13;6.80;;;2.17;;
32333;SDS011;18810;53.040;8.850;2022-10-16T11:21:29;4.25;;;1.63;;
32333;SDS011;18810;53.040;8.850;2022-10-16T11:24:23;5.53;;;1.35;;
32333;SDS011;18810;53.040;8.850;2022-10-16T11:27:00;6.05;;;1.90;;
32333;SDS011;18810;53.040;8.850;2022-10-16T11:29:32;4.35;;;1.75;;
32333;SDS011;18810;53.040;8.850;2022-10-16T11:32:10;5.57;;;1.27;;
32333;SDS011;18810;53.040;8.850;2022-10-16T11:34:53;4.18;;;1.75;;
32333;SDS011;18810;53.040;8.850;2022-10-16T11:37:26;2.80;;;1.70;;
32333;SDS011;18810;53.040;8.850;2022-10-16T11:39:57;6.65;;;1.70;;
32333;SDS011;18810;53.040;8.850;2022-10-16T11:42:32;5.13;;;1.75;;
32333;SDS011;18810;53.040;8.850;2022-10-16T11:47:52;4.47;;;1.33;;
32333;SDS011;18810;53.040;8.850;2022-10-16T11:50:38;6.53;;;1.42;;
32333;SDS011;18810;53.040;8.850;2022-10-16T11:55:59;5.10;;;1.50;;
32333;SDS011;18810;53.040;8.850;2022-10-16T11:58:27;4.90;;;1.83;;
32333;SDS011;18810;53.040;8.850;2022-10-16T12:06:37;2.67;;;1.67;;
32333;SDS011;18810;53.040;8.850;2022-10-16T12:09:13;4.97;;;1.50;;
32333;SDS011;18810;53.040;8.850;2022-10-16T12:11:51;4.72;;;1.55;;
32333;SDS011;18810;53.040;8.850;2022-10-16T12:14:18;3.80;;;1.30;;
32333;SDS011;18810;53.040;8.850;2022-10-16T12:19:21;5.10;;;1.75;;
32333;SDS011;18810;53.040;8.850;2022-10-16T12:21:48;3.60;;;1.60;;
32333;SDS011;18810;53.040;8.850;2022-10-16T12:27:06;5.32;;;1.70;;
32333;SDS011;18810;53.040;8.850;2022-10-16T12:29:59;5.00;;;1.50;;
32333;SDS011;18810;53.040;8.850;2022-10-16T12:32:34;3.55;;;1.40;;
32333;SDS011;18810;53.040;8.850;2022-10-16T12:35:04;7.00;;;1.80;;
32333;SDS011;18810;53.040;8.850;2022-10-16T12:37:42;5.63;;;1.67;;
32333;SDS011;18810;53.040;8.850;2022-10-16T12:40:15;4.28;;;1.63;;
32333;SDS011;18810;53.040;8.850;2022-10-16T12:42:50;7.38;;;1.65;;
32333;SDS011;18810;53.040;8.850;2022-10-16T12:47:59;5.63;;;1.90;;
32333;SDS011;18810;53.040;8.850;2022-10-16T12:50:28;4.00;;;1.45;;
32333;SDS011;18810;53.040;8.850;2022-10-16T12:53:02;5.47;;;1.88;;
32333;SDS011;18810;53.040;8.850;2022-10-16T12:56:17;5.35;;;1.42;;
32333;SDS011;18810;53.040;8.850;2022-10-16T12:58:50;7.78;;;1.48;;
32333;SDS011;18810;53.040;8.850;2022-10-16T13:01:29;8.88;;;2.00;;
32333;SDS011;18810;53.040;8.850;2022-10-16T13:14:45;7.43;;;1.73;;
32333;SDS011;18810;53.040;8.850;2022-10-16T13:17:42;7.28;;;1.80;;
32333;SDS011;18810;53.040;8.850;2022-10-16T13:25:59;5.53;;;1.85;;
32333;SDS011;18810;53.040;8.850;2022-10-16T13:28:41;4.00;;;1.35;;
32333;SDS011;18810;53.040;8.850;2022-10-16T13:31:41;4.05;;;1.70;;
32333;SDS011;18810;53.040;8.850;2022-10-16T13:34:02;8.77;;;1.58;;
32333;SDS011;18810;53.040;8.850;2022-10-16T13:36:34;3.05;;;1.63;;
32333;SDS011;18810;53.040;8.850;2022-10-16T13:39:06;6.28;;;1.55;;
32333;SDS011;18810;53.040;8.850;2022-10-16T13:41:34;4.78;;;1.70;;
32333;SDS011;18810;53.040;8.850;2022-10-16T13:44:00;5.80;;;1.52;;
32333;SDS011;18810;53.040;8.850;2022-10-16T13:46:26;7.20;;;1.80;;
32333;SDS011;18810;53.040;8.850;2022-10-16T13:51:26;5.45;;;1.40;;
32333;SDS011;18810;53.040;8.850;2022-10-16T13:53:54;5.20;;;1.60;;
32333;SDS011;18810;53.040;8.850;2022-10-16T13:56:22;3.22;;;1.40;;
32333;SDS011;18810;53.040;8.850;2022-10-16T13:59:33;5.30;;;1.80;;
32333;SDS011;18810;53.040;8.850;2022-10-16T14:01:47;3.58;;;1.83;;
32333;SDS011;18810;53.040;8.850;2022-10-16T14:04:14;4.88;;;1.63;;
32333;SDS011;18810;53.040;8.850;2022-10-16T14:06:41;4.65;;;1.90;;
32333;SDS011;18810;53.040;8.850;2022-10-16T14:11:47;9.73;;;1.83;;
32333;SDS011;18810;53.040;8.850;2022-10-16T14:14:16;5.57;;;1.65;;
32333;SDS011;18810;53.040;8.850;2022-10-16T14:16:43;4.05;;;1.20;;
32333;SDS011;18810;53.040;8.850;2022-10-16T14:19:21;3.83;;;1.40;;
32333;SDS011;18810;53.040;8.850;2022-10-16T14:21:50;7.63;;;1.58;;
32333;SDS011;18810;53.040;8.850;2022-10-16T14:24:32;9.48;;;2.17;;
32333;SDS011;18810;53.040;8.850;2022-10-16T14:26:59;7.22;;;1.80;;
32333;SDS011;18810;53.040;8.850;2022-10-16T14:29:26;6.80;;;2.00;;
32333;SDS011;18810;53.040;8.850;2022-10-16T14:32:03;6.63;;;1.75;;
32333;SDS011;18810;53.040;8.850;2022-10-16T14:34:53;8.20;;;1.95;;
32333;SDS011;18810;53.040;8.850;2022-10-16T14:39:55;6.63;;;1.65;;
32333;SDS011;18810;53.040;8.850;2022-10-16T14:42:22;8.35;;;2.10;;
32333;SDS011;18810;53.040;8.850;2022-10-16T14:44:50;4.05;;;1.63;;
32333;SDS011;18810;53.040;8.850;2022-10-16T14:47:18;4.43;;;1.75;;
32333;SDS011;18810;53.040;8.850;2022-10-16T14:49:51;4.07;;;1.80;;
32333;SDS011;18810;53.040;8.850;2022-10-16T14:52:20;6.10;;;2.08;;
32333;SDS011;18810;53.040;8.850;2022-10-16T14:54:49;6.90;;;1.67;;
32333;SDS011;18810;53.040;8.850;2022-10-16T14:57:19;5.35;;;1.92;;
32333;SDS011;18810;53.040;8.850;2022-10-16T14:59:47;4.60;;;1.95;;
32333;SDS011;18810;53.040;8.850;2022-10-16T15:04:55;4.35;;;2.00;;
32333;SDS011;18810;53.040;8.850;2022-10-16T15:07:21;6.75;;;1.88;;
32333;SDS011;18810;53.040;8.850;2022-10-16T15:09:47;3.85;;;1.80;;
32333;SDS011;18810;53.040;8.850;2022-10-16T15:12:13;7.30;;;2.17;;
32333;SDS011;18810;53.040;8.850;2022-10-16T15:14:38;7.68;;;2.30;;
32333;SDS011;18810;53.040;8.850;2022-10-16T15:17:04;5.55;;;1.75;;
32333;SDS011;18810;53.040;8.850;2022-10-16T15:19:30;6.93;;;1.90;;
32333;SDS011;18810;53.040;8.850;2022-10-16T15:21:55;7.82;;;2.13;;
32333;SDS011;18810;53.040;8.850;2022-10-16T15:24:21;6.05;;;2.05;;
32333;SDS011;18810;53.040;8.850;2022-10-16T15:26:47;5.78;;;1.95;;
32333;SDS011;18810;53.040;8.850;2022-10-16T15:29:14;6.13;;;2.15;;
32333;SDS011;18810;53.040;8.850;2022-10-16T15:31:40;4.05;;;1.83;;
32333;SDS011;18810;53.040;8.850;2022-10-16T15:34:09;7.93;;;2.30;;
32333;SDS011;18810;53.040;8.850;2022-10-16T15:36:35;8.18;;;2.25;;
32333;SDS011;18810;53.040;8.850;2022-10-16T15:39:05;5.57;;;1.90;;
32333;SDS011;18810;53.040;8.850;2022-10-16T15:41:38;7.05;;;2.30;;
32333;SDS011;18810;53.040;8.850;2022-10-16T15:44:04;4.47;;;2.05;;
32333;SDS011;18810;53.040;8.850;2022-10-16T15:46:30;5.90;;;2.15;;
32333;SDS011;18810;53.040;8.850;2022-10-16T15:48:57;5.03;;;2.30;;
32333;SDS011;18810;53.040;8.850;2022-10-16T15:51:23;9.63;;;2.63;;
32333;SDS011;18810;53.040;8.850;2022-10-16T15:53:50;4.15;;;2.60;;
32333;SDS011;18810;53.040;8.850;2022-10-16T15:56:17;6.50;;;2.75;;
32333;SDS011;18810;53.040;8.850;2022-10-16T15:58:43;7.50;;;2.17;;
32333;SDS011;18810;53.040;8.850;2022-10-16T16:01:10;8.27;;;2.35;;
32333;SDS011;18810;53.040;8.850;2022-10-16T16:03:37;8.65;;;2.70;;
32333;SDS011;18810;53.040;8.850;2022-10-16T16:06:06;6.80;;;2.38;;
32333;SDS011;18810;53.040;8.850;2022-10-16T16:08:33;8.13;;;2.38;;
32333;SDS011;18810;53.040;8.850;2022-10-16T16:11:03;7.82;;;3.22;;
32333;SDS011;18810;53.040;8.850;2022-10-16T16:13:33;6.60;;;2.97;;
32333;SDS011;18810;53.040;8.850;2022-10-16T16:15:58;6.20;;;2.90;;
32333;SDS011;18810;53.040;8.850;2022-10-16T16:18:24;5.13;;;2.35;;
32333;SDS011;18810;53.040;8.850;2022-10-16T16:20:50;8.02;;;2.60;;
32333;SDS011;18810;53.040;8.850;2022-10-16T16:23:16;8.25;;;2.90;;
32333;SDS011;18810;53.040;8.850;2022-10-16T16:25:44;8.05;;;2.53;;
32333;SDS011;18810;53.040;8.850;2022-10-16T16:28:10;9.27;;;2.60;;
32333;SDS011;18810;53.040;8.850;2022-10-16T16:30:39;6.32;;;2.60;;
32333;SDS011;18810;53.040;8.850;2022-10-16T16:33:05;8.57;;;3.08;;
32333;SDS011;18810;53.040;8.850;2022-10-16T16:35:31;5.30;;;2.15;;
32333;SDS011;18810;53.040;8.850;2022-10-16T16:37:56;6.78;;;2.40;;
32333;SDS011;18810;53.040;8.850;2022-10-16T16:40:22;6.95;;;2.47;;
32333;SDS011;18810;53.040;8.850;2022-10-16T16:42:48;7.70;;;2.60;;
32333;SDS011;18810;53.040;8.850;2022-10-16T16:45:14;4.85;;;2.22;;
32333;SDS011;18810;53.040;8.850;2022-10-16T16:47:40;6.68;;;2.88;;
32333;SDS011;18810;53.040;8.850;2022-10-16T16:50:07;6.57;;;2.80;;